Time;durP1;ratioP1;P1;durP2;ratioP2;P2;SDS_P1;SDS_P2;PMS_P1;PMS_P2;Temp;Humidity;BMP_temperature;BMP_pressure;BME280_temperature;BME280_humidity;BME280_pressure;Samples;Min_cycle;Max_cycle;Signal;HPM_P1;HPM_P2
2023/03/15 00:00:54;;;;;;;8.82;4.70;;;1.50;99.90;;;0.41;100.00;96791.91;5017875;28;20033;-37
2023/03/15 00:03:20;;;;;;;7.20;4.63;;;1.40;99.90;;;0.38;100.00;96797.97;5014004;28;20061;-37
2023/03/15 00:05:48;;;;;;;7.75;4.32;;;1.40;99.90;;;0.46;100.00;96814.34;5019788;28;20083;-37
2023/03/15 00:08:14;;;;;;;9.25;4.78;;;1.40;99.90;;;0.44;100.00;96810.06;5016167;28;20061;-37
2023/03/15 00:10:41;;;;;;;8.95;4.85;;;1.40;99.90;;;0.42;100.00;96817.00;5013323;28;20116;-38
2023/03/15 00:13:08;;;;;;;7.95;4.95;;;1.40;99.90;;;0.40;100.00;96823.91;5009840;28;20087;-37
2023/03/15 00:15:34;;;;;;;7.78;5.32;;;1.40;99.90;;;0.37;100.00;96832.56;5015766;28;20595;-37
2023/03/15 00:18:02;;;;;;;8.55;5.53;;;1.40;99.90;;;0.36;100.00;96838.66;5002575;28;20425;-37
2023/03/15 00:20:28;;;;;;;10.10;5.57;;;1.40;99.90;;;0.34;100.00;96846.44;5003077;28;20037;-37
2023/03/15 00:22:54;;;;;;;13.52;5.47;;;1.40;99.90;;;0.41;100.00;96864.53;5003986;28;20040;-38
2023/03/15 00:25:20;;;;;;;10.93;6.15;;;1.40;99.90;;;0.38;100.00;96858.50;4997988;28;20482;-38
2023/03/15 00:27:45;;;;;;;8.30;5.72;;;1.40;99.90;;;0.41;100.00;96873.19;5014790;28;20041;-38
2023/03/15 00:30:11;;;;;;;11.65;6.00;;;1.40;99.90;;;0.42;100.00;96869.72;5006386;28;21136;-38
2023/03/15 00:32:37;;;;;;;15.63;6.55;;;1.40;99.90;;;0.47;100.00;96872.31;5003294;28;20017;-38
2023/03/15 00:35:04;;;;;;;8.85;5.07;;;1.40;99.90;;;0.52;100.00;96873.13;5015133;28;20362;-38
2023/03/15 00:37:30;;;;;;;11.93;5.80;;;1.50;99.90;;;0.49;100.00;96875.75;4997059;28;20397;-37
2023/03/15 00:39:56;;;;;;;11.00;6.07;;;1.50;99.90;;;0.45;100.00;96868.84;5010464;28;20068;-37
2023/03/15 00:42:26;;;;;;;13.77;6.07;;;1.50;99.90;;;0.51;100.00;96876.59;5004369;28;20116;-37
2023/03/15 00:44:53;;;;;;;12.93;5.55;;;1.50;99.90;;;0.52;100.00;96881.78;5007598;28;20931;-38
2023/03/15 00:47:19;;;;;;;11.23;5.10;;;1.50;99.90;;;0.50;100.00;96882.66;5008686;28;20029;-38
2023/03/15 00:49:45;;;;;;;12.80;5.63;;;1.50;99.90;;;0.51;100.00;96886.97;4992680;28;20087;-37
2023/03/15 00:52:11;;;;;;;15.55;5.22;;;1.50;99.90;;;0.48;100.00;96893.03;5010951;28;20076;-37
2023/03/15 00:54:37;;;;;;;14.68;5.10;;;1.50;99.90;;;0.48;100.00;96911.19;5010238;28;20021;-37
2023/03/15 00:57:03;;;;;;;10.32;5.18;;;1.40;99.90;;;0.44;100.00;96903.44;5016276;28;20056;-38
2023/03/15 00:59:33;;;;;;;12.30;4.82;;;1.40;99.90;;;0.44;100.00;96914.69;5013004;28;20068;-37
2023/03/15 01:02:04;;;;;;;11.07;4.97;;;1.40;99.90;;;0.39;100.00;96916.44;5012259;28;20033;-37
2023/03/15 01:04:30;;;;;;;13.93;5.60;;;1.40;99.90;;;0.32;100.00;96923.41;5011163;28;20374;-37
2023/03/15 01:06:57;;;;;;;10.23;4.70;;;1.30;99.90;;;0.20;100.00;96920.84;5013858;28;20034;-37
2023/03/15 01:09:23;;;;;;;10.80;4.07;;;1.20;99.90;;;0.11;100.00;96923.47;5014666;28;20029;-38
2023/03/15 01:11:50;;;;;;;8.27;3.92;;;1.10;99.90;;;0.03;100.00;96925.22;5013955;28;20033;-37
2023/03/15 01:14:17;;;;;;;12.00;3.92;;;1.00;99.90;;;-0.07;100.00;96926.94;5012477;28;20517;-37
2023/03/15 01:16:44;;;;;;;12.07;3.78;;;0.90;99.90;;;-0.18;100.00;96928.72;5013209;28;20034;-37
2023/03/15 01:19:12;;;;;;;7.15;3.50;;;0.80;99.90;;;-0.22;100.00;96925.25;5004336;28;20029;-37
2023/03/15 01:21:38;;;;;;;14.32;4.03;;;0.70;99.90;;;-0.29;100.00;96939.97;5002806;28;20068;-37
2023/03/15 01:24:04;;;;;;;11.68;3.22;;;0.70;99.90;;;-0.40;100.00;96937.38;5006316;28;20033;-37
2023/03/15 01:26:30;;;;;;;8.25;3.50;;;0.60;99.90;;;-0.47;100.00;96940.84;5015898;28;20036;-37
2023/03/15 01:28:56;;;;;;;8.93;3.63;;;0.50;99.90;;;-0.60;100.00;96945.16;5011722;28;20025;-37
2023/03/15 01:31:25;;;;;;;5.32;2.63;;;0.40;99.90;;;-0.63;100.00;96950.38;5015191;28;20022;-37
2023/03/15 01:33:51;;;;;;;11.57;3.15;;;0.30;99.90;;;-0.70;100.00;96942.59;5010791;28;20116;-38
2023/03/15 01:36:17;;;;;;;8.60;3.13;;;0.30;99.90;;;-0.69;100.00;96942.59;5006463;28;20025;-37
2023/03/15 01:38:43;;;;;;;10.95;3.20;;;0.30;99.90;;;-0.72;100.00;96949.50;5009324;28;20076;-38
2023/03/15 01:41:12;;;;;;;7.28;2.78;;;0.20;99.90;;;-0.72;100.00;96952.09;5010896;28;20387;-38
2023/03/15 01:43:38;;;;;;;6.20;3.10;;;0.20;99.90;;;-0.79;100.00;96956.38;5006715;28;20025;-38
2023/03/15 01:46:14;;;;;;;9.27;3.08;;;0.20;99.90;;;-0.84;100.00;96950.38;5012007;28;20103;-38
2023/03/15 01:48:46;;;;;;;7.15;2.40;;;0.10;99.90;;;-1.01;100.00;96964.13;5011203;22;20410;-37
2023/03/15 01:51:25;;;;;;;11.05;2.72;;;0.10;99.90;;;-0.98;100.00;96958.97;5010981;28;20053;-37
2023/03/15 01:54:20;;;;;;;10.55;2.47;;;0.00;99.90;;;-1.06;100.00;96972.75;5006868;28;20122;-38
2023/03/15 01:56:55;;;;;;;13.57;2.65;;;0.00;99.90;;;-1.10;100.00;96974.47;5005014;28;20045;-37
2023/03/15 01:59:34;;;;;;;6.80;2.22;;;0.00;99.90;;;-1.13;100.00;96964.13;5021197;28;20026;-38
2023/03/15 02:02:00;;;;;;;14.00;2.42;;;-0.10;99.90;;;-0.97;100.00;96986.59;5016034;28;20030;-38
2023/03/15 02:04:36;;;;;;;11.43;2.40;;;-0.10;99.90;;;-0.86;100.00;96975.38;5010898;28;20026;-38
2023/03/15 02:07:04;;;;;;;12.40;3.25;;;0.00;99.90;;;-0.88;100.00;96975.38;5026682;28;20030;-38
2023/03/15 02:09:56;;;;;;;6.28;2.42;;;0.00;99.90;;;-0.98;100.00;96989.16;5015957;28;20111;-38
2023/03/15 02:12:22;;;;;;;4.85;2.05;;;0.00;99.90;;;-1.05;100.00;96979.66;5010028;28;23144;-38
2023/03/15 02:14:50;;;;;;;9.00;1.98;;;0.00;99.90;;;-1.09;100.00;96976.19;5007862;28;20060;-38
2023/03/15 02:17:18;;;;;;;8.75;1.92;;;0.00;99.90;;;-1.12;100.00;96973.59;5021940;28;20102;-38
2023/03/15 02:20:05;;;;;;;3.88;1.98;;;-0.10;99.90;;;-1.11;100.00;96988.28;5012278;28;20041;-38
2023/03/15 02:22:51;;;;;;;3.53;1.75;;;-0.10;99.90;;;-1.21;100.00;96987.38;5006291;28;20236;-38
2023/03/15 02:25:40;;;;;;;5.47;1.58;;;-0.20;99.90;;;-1.17;100.00;96972.72;5008034;28;20039;-38
2023/03/15 02:28:09;;;;;;;4.97;2.05;;;-0.20;99.90;;;-1.16;100.00;96996.03;5004228;28;20042;-38
2023/03/15 02:30:35;;;;;;;3.85;1.50;;;-0.10;99.90;;;-1.10;100.00;96977.06;5008542;28;20112;-38
2023/03/15 02:33:06;;;;;;;3.55;1.38;;;-0.10;99.90;;;-1.03;100.00;96998.66;5011848;28;20044;-38
2023/03/15 02:35:32;;;;;;;8.10;1.73;;;-0.10;99.90;;;-1.08;100.00;96996.03;5010630;28;20116;-38
2023/03/15 02:37:58;;;;;;;4.40;1.30;;;-0.10;99.90;;;-1.00;100.00;96999.50;5008795;28;20040;-38
2023/03/15 02:40:26;;;;;;;5.75;1.67;;;-0.10;99.90;;;-0.97;100.00;97009.88;5006882;28;20595;-38
2023/03/15 02:42:57;;;;;;;8.85;1.48;;;0.00;99.90;;;-1.02;100.00;97009.00;5008377;28;20437;-38
2023/03/15 02:45:26;;;;;;;9.53;1.77;;;-0.10;99.90;;;-1.05;100.00;97024.53;4999889;28;20038;-38
2023/03/15 02:47:52;;;;;;;5.93;1.60;;;-0.10;99.90;;;-1.09;100.00;97011.59;5014964;28;20104;-38
2023/03/15 02:50:18;;;;;;;3.55;1.30;;;-0.10;99.90;;;-1.11;100.00;97029.69;5007518;28;20057;-38
2023/03/15 02:52:44;;;;;;;3.90;1.20;;;-0.10;99.90;;;-1.10;100.00;97030.53;5005851;28;20489;-38
2023/03/15 02:55:10;;;;;;;6.00;1.33;;;-0.10;99.90;;;-1.13;100.00;97028.81;5008250;28;20493;-38
2023/03/15 02:57:36;;;;;;;6.35;1.30;;;-0.10;99.90;;;-1.13;100.00;97041.75;5005534;28;20433;-38
2023/03/15 03:00:12;;;;;;;14.02;1.60;;;-0.10;99.90;;;-1.06;100.00;97059.03;5004981;28;20405;-38
2023/03/15 03:02:43;;;;;;;7.45;1.38;;;-0.10;99.90;;;-0.94;100.00;97065.09;5003641;28;20037;-38
2023/03/15 03:05:11;;;;;;;8.60;1.10;;;0.00;99.90;;;-1.01;100.00;97071.97;5009887;28;20432;-38
2023/03/15 03:07:37;;;;;;;5.22;1.05;;;-0.10;99.90;;;-1.05;100.00;97078.88;5005126;28;20115;-38
2023/03/15 03:10:05;;;;;;;5.47;1.13;;;-0.10;99.90;;;-1.03;100.00;97078.88;5013512;28;20140;-38
2023/03/15 03:12:31;;;;;;;3.72;1.20;;;-0.10;99.90;;;-1.16;100.00;97072.78;5006930;28;20525;-38
2023/03/15 03:14:57;;;;;;;4.70;1.00;;;-0.10;99.90;;;-1.16;100.00;97091.78;5002781;28;20029;-38
2023/03/15 03:17:23;;;;;;;5.03;0.98;;;-0.10;99.90;;;-1.17;100.00;97097.81;5007277;28;20601;-38
2023/03/15 03:19:50;;;;;;;6.25;1.42;;;-0.20;99.90;;;-1.17;100.00;97092.66;5014165;28;20033;-38
2023/03/15 03:22:16;;;;;;;5.70;1.23;;;-0.20;99.90;;;-1.25;100.00;97089.16;5012032;28;20447;-38
2023/03/15 03:24:44;;;;;;;4.38;1.42;;;-0.20;99.90;;;-1.23;100.00;97102.94;5011279;28;20494;-38
2023/03/15 03:27:13;;;;;;;4.20;1.20;;;-0.20;99.90;;;-1.30;100.00;97090.84;4997572;28;20033;-38
2023/03/15 03:29:40;;;;;;;4.00;1.20;;;-0.20;99.90;;;-1.25;100.00;97111.56;5009786;28;20040;-39
2023/03/15 03:32:07;;;;;;;1.65;1.10;;;-0.30;99.90;;;-1.30;100.00;97108.09;5009858;28;20037;-39
2023/03/15 03:34:32;;;;;;;5.82;1.58;;;-0.30;99.90;;;-1.39;100.00;97106.31;5004941;28;20030;-39
2023/03/15 03:36:58;;;;;;;5.57;1.40;;;-0.40;99.90;;;-1.39;100.00;97109.75;5004061;28;20563;-39
2023/03/15 03:39:24;;;;;;;4.38;1.17;;;-0.40;99.90;;;-1.36;100.00;97127.03;5002616;28;20037;-39
2023/03/15 03:41:50;;;;;;;7.90;1.40;;;-0.40;99.90;;;-1.39;100.00;97117.53;5002357;28;20033;-39
2023/03/15 03:44:16;;;;;;;8.32;1.38;;;-0.40;99.90;;;-1.41;100.00;97132.19;5013246;28;20424;-39
2023/03/15 03:46:42;;;;;;;5.53;1.67;;;-0.50;99.90;;;-1.41;100.00;97123.56;5008381;28;20045;-39
2023/03/15 03:49:07;;;;;;;7.78;1.88;;;-0.50;99.90;;;-1.44;100.00;97131.28;5011863;28;20091;-38
2023/03/15 03:51:33;;;;;;;4.95;1.77;;;-0.50;99.90;;;-1.46;100.00;97140.78;5015534;28;20029;-39
2023/03/15 03:54:00;;;;;;;6.18;1.77;;;-0.50;99.90;;;-1.66;100.00;97118.22;5011860;28;20088;-39
2023/03/15 03:56:26;;;;;;;4.53;1.63;;;-0.50;99.90;;;-1.48;100.00;97147.66;5002403;28;20045;-39
2023/03/15 03:58:52;;;;;;;3.95;1.63;;;-0.50;99.90;;;-1.69;100.00;97125.94;5010034;28;20042;-39
2023/03/15 04:01:20;;;;;;;4.45;1.73;;;-0.50;99.90;;;-1.50;100.00;97154.53;5003763;28;20559;-38
2023/03/15 04:03:47;;;;;;;6.90;1.80;;;-0.50;99.90;;;-1.55;100.00;97163.13;4997484;28;20500;-39
2023/03/15 04:06:13;;;;;;;5.88;2.03;;;-0.60;99.90;;;-1.57;100.00;97159.66;5006908;28;20061;-39
2023/03/15 04:08:40;;;;;;;6.13;2.22;;;-0.60;99.90;;;-1.65;100.00;97142.34;5012211;28;20553;-39
2023/03/15 04:11:06;;;;;;;4.35;1.98;;;-0.60;99.90;;;-1.57;100.00;97159.66;5011845;28;20150;-38
2023/03/15 04:13:32;;;;;;;10.13;2.08;;;-0.60;99.90;;;-1.73;100.00;97150.91;5002216;28;20517;-38
2023/03/15 04:16:00;;;;;;;7.32;2.05;;;-0.60;99.90;;;-1.58;100.00;97180.34;5006457;28;20033;-38
2023/03/15 04:18:26;;;;;;;6.22;2.03;;;-0.50;99.90;;;-1.57;100.00;97176.91;5006704;28;20380;-38
2023/03/15 04:20:56;;;;;;;5.82;2.17;;;-0.60;99.90;;;-1.57;100.00;97182.94;5002773;28;20132;-39
2023/03/15 04:23:22;;;;;;;6.35;2.22;;;-0.50;99.90;;;-1.60;100.00;97175.19;5001075;28;20117;-39
2023/03/15 04:25:54;;;;;;;5.30;2.05;;;-0.60;99.90;;;-1.65;100.00;97175.97;5000627;28;20157;-39
2023/03/15 04:28:21;;;;;;;8.30;2.20;;;-0.60;99.90;;;-1.65;100.00;97174.28;5008453;28;20445;-39
2023/03/15 04:30:48;;;;;;;7.32;2.10;;;-0.60;99.90;;;-1.52;100.00;97195.91;5003706;28;20045;-39
2023/03/15 04:33:14;;;;;;;5.10;2.35;;;-0.50;99.90;;;-1.55;100.00;97201.91;5009163;28;20083;-39
2023/03/15 04:35:41;;;;;;;3.67;1.92;;;-0.50;99.90;;;-1.49;100.00;97195.94;5003233;28;20025;-39
2023/03/15 04:38:07;;;;;;;8.15;2.50;;;-0.50;99.90;;;-1.55;100.00;97193.28;5009253;28;20040;-39
2023/03/15 04:40:34;;;;;;;7.97;2.38;;;-0.50;99.90;;;-1.62;100.00;97176.84;5004754;28;20660;-39
2023/03/15 04:43:02;;;;;;;8.05;2.42;;;-0.50;99.90;;;-1.48;100.00;97200.25;5003565;28;20045;-39
2023/03/15 04:45:29;;;;;;;6.93;2.70;;;-0.50;99.90;;;-1.53;100.00;97207.09;5004347;28;20030;-39
2023/03/15 04:47:55;;;;;;;7.88;2.55;;;-0.50;99.90;;;-1.58;100.00;97199.31;5007469;28;20117;-39
2023/03/15 04:50:22;;;;;;;5.07;2.10;;;-0.50;99.90;;;-1.56;100.00;97201.94;5008034;28;20719;-38
2023/03/15 04:52:48;;;;;;;6.97;2.67;;;-0.60;99.90;;;-1.57;100.00;97193.28;5008812;28;20025;-38
2023/03/15 04:55:14;;;;;;;10.40;2.67;;;-0.60;99.90;;;-1.60;100.00;97206.22;5000142;28;20038;-39
2023/03/15 04:57:40;;;;;;;8.40;2.65;;;-0.60;99.90;;;-1.59;100.00;97201.91;5008406;28;20283;-39
2023/03/15 05:00:12;;;;;;;7.72;2.40;;;-0.60;99.90;;;-1.60;100.00;97203.63;5008431;28;20071;-38
2023/03/15 05:02:40;;;;;;;10.80;2.30;;;-0.60;99.90;;;-1.71;100.00;97200.06;5003307;28;20280;-38
2023/03/15 05:05:07;;;;;;;5.95;2.15;;;-0.70;99.90;;;-1.69;100.00;97206.09;5005984;28;20029;-39
2023/03/15 05:07:34;;;;;;;6.65;2.10;;;-0.60;99.90;;;-1.71;100.00;97204.38;5004465;28;20037;-39
2023/03/15 05:10:00;;;;;;;11.18;2.30;;;-0.70;99.90;;;-1.74;100.00;97194.88;5003223;28;20501;-38
2023/03/15 05:12:27;;;;;;;7.93;2.35;;;-0.70;99.90;;;-1.81;100.00;97181.03;5006486;28;20034;-38
2023/03/15 05:14:53;;;;;;;6.80;2.00;;;-0.70;99.90;;;-1.75;100.00;97196.59;5010474;28;20026;-38
2023/03/15 05:17:21;;;;;;;8.00;2.00;;;-0.70;99.90;;;-1.75;100.00;97206.06;5010869;28;20030;-38
2023/03/15 05:19:48;;;;;;;8.10;2.20;;;-0.70;99.90;;;-1.77;100.00;97207.78;5013806;28;20477;-38
2023/03/15 05:22:13;;;;;;;8.57;2.47;;;-0.80;99.90;;;-1.81;100.00;97206.88;5010594;28;20254;-38
2023/03/15 05:24:39;;;;;;;7.28;2.42;;;-0.80;99.90;;;-1.87;100.00;97190.44;5005774;28;20501;-38
2023/03/15 05:27:05;;;;;;;8.80;2.47;;;-0.80;99.90;;;-1.81;100.00;97199.13;5013341;28;20029;-38
2023/03/15 05:29:30;;;;;;;3.80;2.30;;;-0.80;99.90;;;-1.82;100.00;97202.56;5011205;28;20095;-38
2023/03/15 05:31:56;;;;;;;4.00;2.05;;;-0.80;99.90;;;-1.80;100.00;97211.19;5009980;28;20029;-38
2023/03/15 05:34:23;;;;;;;11.30;2.83;;;-0.80;99.90;;;-1.82;100.00;97199.13;5008166;28;20123;-38
2023/03/15 05:36:50;;;;;;;7.70;2.42;;;-0.80;99.90;;;-1.82;100.00;97215.47;5009464;28;20058;-38
2023/03/15 05:39:17;;;;;;;5.53;2.40;;;-0.80;99.90;;;-1.83;100.00;97218.06;5005957;28;20040;-38
2023/03/15 05:41:43;;;;;;;9.65;2.40;;;-0.80;99.90;;;-1.86;100.00;97212.88;5001415;28;20605;-38
2023/03/15 05:44:09;;;;;;;8.02;2.10;;;-0.80;99.90;;;-1.84;100.00;97216.34;5007368;28;20038;-38
2023/03/15 05:46:35;;;;;;;4.95;2.15;;;-0.80;99.90;;;-1.82;100.00;97219.81;5005757;28;20033;-38
2023/03/15 05:49:00;;;;;;;5.03;2.00;;;-0.80;99.90;;;-1.81;100.00;97214.66;5011249;28;20088;-38
2023/03/15 05:51:26;;;;;;;5.70;2.10;;;-0.80;99.90;;;-1.78;100.00;97225.00;5006927;28;20022;-38
2023/03/15 05:53:52;;;;;;;9.70;2.50;;;-0.80;99.90;;;-1.78;100.00;97230.16;5004853;28;20441;-38
2023/03/15 05:56:17;;;;;;;7.72;2.97;;;-0.80;99.90;;;-1.75;100.00;97232.78;5012551;28;20654;-38
2023/03/15 05:58:43;;;;;;;6.03;2.30;;;-0.80;99.90;;;-1.68;100.00;97227.69;5012414;28;20132;-38
2023/03/15 06:01:09;;;;;;;6.53;2.15;;;-0.70;99.90;;;-1.66;100.00;97231.16;5010320;28;20025;-38
2023/03/15 06:03:35;;;;;;;11.27;2.40;;;-0.70;99.90;;;-1.62;100.00;97222.56;4992870;28;20289;-38
2023/03/15 06:06:02;;;;;;;3.45;2.20;;;-0.60;99.90;;;-1.56;100.00;97232.97;5004276;28;20033;-38
2023/03/15 06:08:28;;;;;;;6.38;2.38;;;-0.60;99.90;;;-1.50;100.00;97226.97;5010854;28;20451;-38
2023/03/15 06:10:53;;;;;;;5.35;2.42;;;-0.50;99.90;;;-1.49;100.00;97226.97;5005840;28;20116;-38
2023/03/15 06:13:19;;;;;;;7.68;2.17;;;-0.50;99.90;;;-1.54;100.00;97221.75;5006371;28;20064;-38
2023/03/15 06:15:48;;;;;;;12.30;2.83;;;-0.40;99.90;;;-1.46;100.00;97228.72;5011801;28;20053;-38
2023/03/15 06:18:16;;;;;;;4.47;2.60;;;-0.40;99.90;;;-1.38;100.00;97227.91;5004445;28;20572;-38
2023/03/15 06:20:42;;;;;;;12.00;2.80;;;-0.40;99.90;;;-1.31;100.00;97233.13;4996994;28;20087;-38
2023/03/15 06:23:08;;;;;;;8.50;2.60;;;-0.30;99.90;;;-1.20;100.00;97239.25;5006092;28;20063;-38
2023/03/15 06:25:34;;;;;;;11.25;2.88;;;-0.30;99.90;;;-1.11;100.00;97241.91;5007130;28;20105;-38
2023/03/15 06:28:00;;;;;;;8.48;2.92;;;-0.20;99.90;;;-1.07;100.00;97233.31;5005973;28;20591;-38
2023/03/15 06:30:26;;;;;;;6.20;2.33;;;-0.10;99.90;;;-0.98;100.00;97251.47;5005105;28;20116;-38
2023/03/15 06:32:52;;;;;;;10.55;2.75;;;0.00;99.90;;;-0.96;100.00;97252.34;5009286;28;20060;-38
2023/03/15 06:35:18;;;;;;;10.35;2.72;;;0.00;99.90;;;-0.92;100.00;97250.63;5008572;28;20068;-38
2023/03/15 06:37:44;;;;;;;7.90;2.75;;;0.10;99.90;;;-0.86;100.00;97255.88;5009945;28;20069;-38
2023/03/15 06:40:11;;;;;;;10.18;2.78;;;0.20;99.90;;;-0.80;100.00;97242.09;5009300;28;20030;-38
2023/03/15 06:42:38;;;;;;;6.32;2.50;;;0.20;99.90;;;-0.68;100.00;97251.63;5007006;28;20061;-38
2023/03/15 06:45:08;;;;;;;6.65;2.30;;;0.30;99.90;;;-0.83;100.00;97219.63;5011599;28;20981;-38
2023/03/15 06:47:34;;;;;;;6.47;2.67;;;0.40;99.90;;;-0.51;100.00;97267.25;5014488;28;20466;-38
2023/03/15 06:50:00;;;;;;;7.25;2.55;;;0.40;99.90;;;-0.49;100.00;97257.78;5009809;28;20037;-38
2023/03/15 06:52:26;;;;;;;10.18;2.40;;;0.50;99.90;;;-0.43;100.00;97255.19;5007454;28;20029;-38
2023/03/15 06:54:52;;;;;;;6.68;2.47;;;0.60;99.90;;;-0.32;100.00;97255.22;5005063;28;20657;-38
2023/03/15 06:57:18;;;;;;;6.75;1.85;;;0.70;99.90;;;-0.25;100.00;97254.41;5004482;28;20065;-38
2023/03/15 06:59:43;;;;;;;10.02;2.13;;;0.80;99.90;;;-0.07;100.00;97263.97;5003457;28;20057;-38
2023/03/15 07:02:16;;;;;;;10.82;2.20;;;0.80;99.90;;;0.01;100.00;97264.84;5004474;28;20486;-38
2023/03/15 07:04:43;;;;;;;8.57;2.30;;;1.00;99.90;;;0.03;100.00;97263.13;4999855;28;20051;-38
2023/03/15 07:07:10;;;;;;;11.35;2.53;;;1.00;99.90;;;0.14;100.00;97270.94;5004001;28;20084;-38
2023/03/15 07:09:36;;;;;;;7.13;1.98;;;1.10;99.90;;;0.16;100.00;97271.78;5006069;28;20025;-37
2023/03/15 07:12:02;;;;;;;6.80;2.15;;;1.20;99.90;;;0.25;100.00;97278.72;5010761;28;20033;-37
2023/03/15 07:14:28;;;;;;;13.30;2.85;;;1.30;99.90;;;0.15;100.00;97255.38;5009009;28;20083;-38
2023/03/15 07:16:53;;;;;;;8.90;2.05;;;1.30;99.90;;;0.42;100.00;97277.03;5009009;28;23457;-37
2023/03/15 07:19:19;;;;;;;9.02;2.38;;;1.40;99.90;;;0.49;100.00;97283.97;5008758;28;20029;-37
2023/03/15 07:21:44;;;;;;;5.75;1.98;;;1.50;99.90;;;0.59;100.00;97283.97;5007242;28;20037;-37
2023/03/15 07:24:10;;;;;;;6.72;2.15;;;1.50;99.90;;;0.70;100.00;97287.44;5005560;28;20053;-37
2023/03/15 07:26:36;;;;;;;7.07;2.28;;;1.60;99.90;;;0.82;100.00;97291.75;5005324;28;20037;-37
2023/03/15 07:29:02;;;;;;;5.60;1.58;;;1.70;99.90;;;0.86;100.00;97304.75;5006684;28;20076;-37
2023/03/15 07:31:28;;;;;;;7.32;1.95;;;1.80;99.90;;;0.89;100.00;97291.75;5009876;28;20742;-37
2023/03/15 07:33:53;;;;;;;6.47;1.73;;;1.90;99.90;;;0.89;100.00;97294.34;5006030;28;20094;-37
2023/03/15 07:36:21;;;;;;;9.52;2.75;;;1.90;99.90;;;1.02;100.00;97299.53;5004080;28;20480;-38
2023/03/15 07:38:46;;;;;;;12.88;1.90;;;2.00;99.90;;;1.08;100.00;97310.81;4997300;28;20037;-37
2023/03/15 07:41:12;;;;;;;11.32;2.00;;;2.00;99.90;;;1.22;100.00;97303.00;5009610;28;20398;-38
2023/03/15 07:43:38;;;;;;;10.02;2.05;;;2.20;99.90;;;1.23;100.00;97301.25;5006255;28;20033;-38
2023/03/15 07:46:04;;;;;;;5.78;1.90;;;2.20;99.90;;;1.31;100.00;97302.97;5009232;28;20029;-38
2023/03/15 07:48:30;;;;;;;6.97;2.05;;;2.30;99.90;;;1.47;100.00;97303.81;5002081;28;20224;-39
2023/03/15 07:50:56;;;;;;;6.13;1.80;;;2.40;99.90;;;1.45;100.00;97302.06;5039980;23;20053;-48
2023/03/15 07:53:22;;;;;;;6.68;1.95;;;2.40;99.90;;;1.57;100.00;97304.66;5027596;28;20425;-49
2023/03/15 07:55:48;;;;;;;6.45;1.73;;;2.50;99.90;;;1.58;100.00;97296.00;5027223;28;20716;-49
2023/03/15 07:58:14;;;;;;;8.93;1.95;;;2.50;99.90;;;1.61;100.00;97302.91;5037603;28;20533;-52
2023/03/15 08:00:40;;;;;;;7.90;1.58;;;2.50;99.90;;;1.57;100.00;97299.44;5020663;28;20117;-51
2023/03/15 08:03:06;;;;;;;8.00;2.33;;;2.50;99.90;;;1.67;100.00;97308.06;5018778;28;20100;-51
2023/03/15 08:05:33;;;;;;;6.30;1.88;;;2.60;99.90;;;1.69;100.00;97304.63;5014854;28;20048;-52
2023/03/15 08:07:59;;;;;;;8.25;2.20;;;2.60;99.90;;;1.67;100.00;97310.66;5012181;28;20489;-50
2023/03/15 08:10:25;;;;;;;6.80;2.03;;;2.60;99.90;;;1.64;100.00;97308.94;5017195;28;20045;-52
2023/03/15 08:12:51;;;;;;;6.18;1.77;;;2.60;99.90;;;1.68;100.00;97315.88;5012298;28;20044;-51
2023/03/15 08:15:18;;;;;;;11.68;1.73;;;2.60;99.90;;;1.81;100.00;97310.63;5007933;28;20401;-50
2023/03/15 08:17:47;;;;;;;5.07;1.55;;;2.70;99.90;;;1.89;100.00;97308.88;5011361;28;20037;-51
2023/03/15 08:20:16;;;;;;;5.20;1.92;;;2.80;99.90;;;2.01;100.00;97321.84;5012247;28;20072;-52
2023/03/15 08:22:43;;;;;;;5.28;2.03;;;2.90;99.90;;;2.17;100.00;97316.53;5007875;28;20119;-52
2023/03/15 08:25:11;;;;;;;4.68;1.50;;;3.00;99.90;;;2.30;100.00;97323.44;5000578;28;20071;-50
2023/03/15 08:27:38;;;;;;;5.57;1.75;;;3.20;99.90;;;2.52;100.00;97318.97;5001207;28;20033;-51
2023/03/15 08:30:05;;;;;;;5.63;2.10;;;3.40;99.90;;;2.56;100.00;97325.00;5008931;28;20029;-47
2023/03/15 08:32:31;;;;;;;7.15;1.60;;;3.50;99.90;;;2.66;100.00;97327.53;5015507;28;20030;-50
2023/03/15 08:34:57;;;;;;;6.45;1.90;;;3.60;99.90;;;2.72;100.00;97331.84;5008289;28;20033;-52
2023/03/15 08:37:22;;;;;;;7.28;1.55;;;3.70;99.90;;;2.92;100.00;97333.44;5012921;28;20037;-50
2023/03/15 08:39:48;;;;;;;4.72;1.70;;;3.80;99.90;;;3.16;100.00;97322.81;5014612;28;20390;-49
2023/03/15 08:42:14;;;;;;;4.05;1.48;;;4.00;99.90;;;3.38;100.00;97336.50;5005214;28;20543;-47
2023/03/15 08:44:40;;;;;;;8.45;1.58;;;4.30;99.90;;;3.59;100.00;97327.63;4995123;28;20056;-50
2023/03/15 08:47:06;;;;;;;7.20;1.58;;;4.50;99.90;;;3.90;100.00;97329.03;4997835;28;20141;-52
2023/03/15 08:49:31;;;;;;;5.70;1.70;;;4.80;99.90;;;3.87;92.11;97314.25;4999531;28;20037;-50
2023/03/15 08:51:57;;;;;;;9.88;1.73;;;4.90;99.90;;;4.15;92.33;97342.66;5011818;28;20416;-51
2023/03/15 08:54:24;;;;;;;4.30;1.42;;;5.00;99.90;;;4.18;93.73;97338.25;5007895;28;20040;-52
2023/03/15 08:56:50;;;;;;;3.70;1.30;;;5.00;99.90;;;4.11;89.22;97340.94;5017445;28;20366;-52
2023/03/15 08:59:15;;;;;;;5.93;1.67;;;5.00;99.90;;;4.00;90.66;97318.47;5012488;28;20037;-52
2023/03/15 09:01:43;;;;;;;4.75;1.50;;;5.00;99.90;;;4.26;88.33;97345.97;5007169;28;20131;-51
2023/03/15 09:04:09;;;;;;;6.60;1.70;;;5.10;99.90;;;4.31;83.90;97346.78;5012704;28;20041;-48
2023/03/15 09:06:35;;;;;;;5.25;1.35;;;5.20;99.90;;;4.33;89.18;97347.63;5004467;28;20568;-53
2023/03/15 09:09:01;;;;;;;3.20;1.50;;;5.20;99.90;;;4.45;87.57;97356.19;5004743;28;20033;-52
2023/03/15 09:11:26;;;;;;;6.65;1.80;;;5.30;99.90;;;4.54;87.76;97361.28;5012141;28;20618;-52
2023/03/15 09:13:52;;;;;;;3.97;1.67;;;5.30;99.90;;;4.59;82.93;97352.53;4997568;28;20042;-48
2023/03/15 09:16:18;;;;;;;3.55;1.30;;;5.50;99.90;;;4.75;78.67;97354.91;5009038;28;20048;-50
2023/03/15 09:18:44;;;;;;;2.33;1.27;;;5.60;99.90;;;5.02;80.19;97361.44;5008984;28;20033;-51
2023/03/15 09:21:10;;;;;;;6.28;1.60;;;5.80;99.90;;;5.38;79.76;97360.88;5010602;28;20041;-51
2023/03/15 09:23:36;;;;;;;3.92;1.30;;;6.10;99.90;;;5.53;79.77;97361.50;5012249;28;20297;-50
2023/03/15 09:26:02;;;;;;;4.82;1.40;;;6.40;99.90;;;5.92;78.20;97360.78;5005644;28;20033;-52
2023/03/15 09:28:28;;;;;;;8.20;1.38;;;6.70;99.90;;;6.01;67.24;97365.00;5015364;28;20063;-51
2023/03/15 09:30:54;;;;;;;8.55;1.83;;;6.90;99.90;;;6.01;62.56;97370.25;5009487;28;20074;-51
2023/03/15 09:33:24;;;;;;;5.03;1.20;;;7.00;99.90;;;5.84;63.70;97360.09;5009091;28;20033;-51
2023/03/15 09:35:51;;;;;;;6.43;1.40;;;6.90;99.90;;;5.61;60.82;97378.81;5010985;28;20059;-52
2023/03/15 09:38:18;;;;;;;5.50;1.27;;;6.70;99.90;;;5.64;62.63;97369.16;5010014;28;20095;-52
2023/03/15 09:40:45;;;;;;;5.28;1.55;;;6.60;99.90;;;5.67;60.09;97373.44;5010813;28;20033;-47
2023/03/15 09:43:58;;;;;;;3.38;1.05;;;6.60;99.90;;;5.77;61.58;97380.25;5010647;28;20043;-48
2023/03/15 09:46:34;;;;;;;4.38;1.15;;;6.70;99.90;;;5.78;65.43;97376.75;5001965;28;20074;-49
2023/03/15 09:49:40;;;;;;;5.47;1.42;;;6.70;99.90;;;5.67;61.30;97381.31;5011713;28;20064;-54
2023/03/15 09:52:32;;;;;;;3.55;1.17;;;6.60;99.90;;;5.65;63.94;97377.84;5029175;28;20037;-52
2023/03/15 09:55:18;;;;;;;5.78;1.27;;;6.60;99.90;;;5.73;62.71;97382.06;5004113;28;20033;-53
2023/03/15 09:57:55;;;;;;;2.90;1.08;;;6.60;99.90;;;5.83;62.86;97389.75;5025682;28;20354;-53
2023/03/15 10:00:50;;;;;;;3.35;0.90;;;6.70;99.90;;;6.04;62.26;97375.44;5004266;28;20244;-53
2023/03/15 10:03:50;;;;;;;4.13;1.00;;;6.90;99.90;;;6.05;57.96;97390.25;4995054;28;20049;-53
2023/03/15 10:06:27;;;;;;;4.80;1.33;;;7.00;99.90;;;6.18;60.01;97377.78;5011389;28;20119;-55
2023/03/15 10:08:59;;;;;;;6.07;1.50;;;7.00;99.90;;;6.34;60.45;97378.34;5023919;28;20026;-52
2023/03/15 10:11:56;;;;;;;5.72;1.40;;;7.20;99.90;;;6.79;63.51;97379.13;5005489;28;20140;-54
2023/03/15 10:14:54;;;;;;;5.78;1.10;;;7.60;99.90;;;7.15;56.96;97381.78;5009199;28;20025;-52
2023/03/15 10:17:57;;;;;;;6.35;1.30;;;8.10;99.90;;;7.30;52.60;97384.94;5019224;28;20081;-54
2023/03/15 10:20:35;;;;;;;3.63;1.15;;;8.20;99.90;;;7.31;52.26;97374.44;5001146;28;20108;-52
2023/03/15 10:23:24;;;;;;;2.33;1.10;;;8.20;99.90;;;7.35;54.47;97368.19;5005595;28;20073;-54
2023/03/15 10:25:51;;;;;;;4.15;1.13;;;8.20;99.90;;;7.18;54.66;97373.88;5006619;28;20583;-49